createdAt,value
2023-03-04T00:03:15.792Z,7.10
2023-03-04T00:11:00.977Z,7.20
2023-03-04T00:16:55.513Z,7.10
2023-03-04T00:23:27.072Z,7.00
2023-03-04T00:29:45.428Z,7.00
2023-03-04T00:35:39.801Z,7.00
2023-03-04T00:41:34.276Z,7.00
2023-03-04T00:47:52.732Z,7.00
2023-03-04T00:54:11.115Z,7.00
2023-03-04T01:00:05.886Z,7.10
2023-03-04T01:06:01.564Z,7.20
2023-03-04T01:12:20.076Z,7.20
2023-03-04T01:18:38.515Z,7.10
2023-03-04T01:24:32.934Z,7.10
2023-03-04T01:30:28.400Z,7.10
2023-03-04T01:36:46.903Z,7.10
2023-03-04T01:43:05.269Z,7.00
2023-03-04T01:48:59.969Z,7.00
2023-03-04T01:54:54.483Z,6.90
2023-03-04T02:01:14.056Z,6.80
2023-03-04T02:07:32.449Z,6.90
2023-03-04T02:13:26.787Z,6.90
2023-03-04T02:19:30.915Z,7.00
2023-03-04T02:26:16.783Z,7.00
2023-03-04T02:32:35.236Z,7.00
2023-03-04T02:38:29.591Z,7.00
2023-03-04T02:44:38.708Z,7.00
2023-03-04T02:50:57.218Z,7.20
2023-03-04T02:57:15.674Z,7.10
2023-03-04T03:03:10.138Z,7.00
2023-03-04T03:09:04.739Z,6.90
2023-03-04T03:15:23.277Z,6.90
2023-03-04T03:21:42.672Z,6.90
2023-03-04T03:27:38.198Z,7.00
2023-03-04T03:33:32.756Z,7.10
2023-03-04T03:39:51.258Z,7.10
2023-03-04T03:46:09.703Z,7.20
2023-03-04T03:52:04.125Z,7.00
2023-03-04T03:57:58.625Z,7.00
2023-03-04T04:04:17.219Z,6.90
2023-03-04T04:10:36.617Z,6.90
2023-03-04T04:16:33.034Z,6.90
2023-03-04T04:22:27.548Z,7.00
2023-03-04T04:28:57.995Z,7.00
2023-03-04T04:35:16.413Z,7.00
2023-03-04T04:41:20.537Z,6.90
2023-03-04T04:47:14.985Z,7.00
2023-03-04T04:53:33.546Z,6.90
2023-03-04T04:59:51.905Z,7.00
2023-03-04T05:05:46.378Z,6.90
2023-03-04T05:11:40.885Z,6.90
2023-03-04T05:17:59.398Z,6.90
2023-03-04T05:24:17.777Z,6.80
2023-03-04T05:30:12.491Z,6.80
2023-03-04T05:36:07.296Z,6.70
2023-03-04T05:42:25.786Z,6.70
2023-03-04T05:48:44.271Z,6.80
2023-03-04T05:54:39.627Z,6.80
2023-03-04T06:00:34.114Z,6.70
2023-03-04T06:06:52.598Z,6.70
2023-03-04T06:13:11.014Z,6.70
2023-03-04T06:19:05.346Z,6.60
2023-03-04T06:24:59.860Z,6.50
2023-03-04T06:31:32.820Z,6.50
2023-03-04T06:37:51.198Z,6.60
2023-03-04T06:43:45.624Z,6.50
2023-03-04T06:49:40.083Z,6.60
2023-03-04T06:55:58.563Z,6.80
2023-03-04T07:02:17.482Z,6.80
2023-03-04T07:08:12.873Z,6.80
2023-03-04T07:14:07.496Z,6.80
2023-03-04T07:20:26.102Z,6.90
2023-03-04T07:26:44.512Z,6.80
2023-03-04T07:32:40.038Z,6.90
2023-03-04T07:38:34.545Z,6.80
2023-03-04T07:44:55.211Z,6.80
2023-03-04T07:51:19.414Z,6.80
2023-03-04T07:57:13.771Z,6.80
2023-03-04T08:03:08.247Z,6.60
2023-03-04T08:09:26.737Z,6.60
2023-03-04T08:15:45.148Z,6.70
2023-03-04T08:21:39.528Z,6.60
2023-03-04T08:27:35.032Z,6.70
2023-03-04T08:34:05.810Z,6.80
2023-03-04T08:40:26.534Z,6.90
2023-03-04T08:46:20.966Z,7.00
2023-03-04T08:52:15.439Z,7.10
2023-03-04T08:58:33.937Z,7.20
2023-03-04T09:04:52.320Z,7.30
2023-03-04T09:10:46.764Z,7.40
2023-03-04T09:16:42.223Z,7.50
2023-03-04T09:23:00.768Z,7.60
2023-03-04T09:29:20.175Z,7.80
2023-03-04T09:35:14.563Z,7.90
2023-03-04T09:41:10.888Z,7.80
2023-03-04T09:47:30.371Z,7.80
2023-03-04T09:53:48.754Z,7.80
2023-03-04T09:59:55.394Z,7.90
2023-03-04T10:06:02.751Z,8.40
2023-03-04T10:12:22.561Z,8.60
2023-03-04T10:18:51.703Z,9.00
2023-03-04T10:24:47.719Z,9.20
2023-03-04T10:30:54.115Z,9.40
2023-03-04T10:37:24.608Z,8.90
2023-03-04T10:43:46.722Z,8.50
2023-03-04T10:49:54.135Z,8.60
2023-03-04T10:55:48.596Z,8.50
2023-03-04T11:02:27.416Z,8.60
2023-03-04T11:08:47.544Z,8.60
2023-03-04T11:14:46.072Z,8.50
2023-03-04T11:20:49.437Z,8.50
2023-03-04T11:27:24.183Z,8.50
2023-03-04T11:33:45.618Z,8.40
2023-03-04T11:39:53.342Z,8.50
2023-03-04T11:46:11.537Z,8.00
2023-03-04T11:52:34.982Z,7.80
2023-03-04T11:59:02.643Z,7.90
2023-03-04T12:05:32.323Z,7.90
2023-03-04T12:11:47.701Z,8.30
2023-03-04T12:18:36.125Z,8.30
2023-03-04T12:24:54.528Z,8.50
2023-03-04T12:30:49.961Z,8.50
2023-03-04T12:37:09.548Z,8.40
2023-03-04T12:43:46.526Z,8.40
2023-03-04T12:50:10.931Z,8.40
2023-03-04T12:56:08.617Z,8.60
2023-03-04T13:02:07.319Z,8.20
2023-03-04T13:08:47.172Z,8.00
2023-03-04T13:15:08.304Z,7.50
2023-03-04T13:21:06.772Z,7.50
2023-03-04T13:27:01.232Z,8.10
2023-03-04T13:33:22.723Z,8.60
2023-03-04T13:39:41.117Z,8.70
2023-03-04T13:45:35.891Z,9.30
2023-03-04T13:51:43.080Z,9.40
2023-03-04T13:58:03.018Z,8.60
2023-03-04T14:04:25.216Z,8.60
2023-03-04T14:10:23.786Z,8.70
2023-03-04T14:16:26.201Z,9.10
2023-03-04T14:22:44.747Z,9.20
2023-03-04T14:29:04.014Z,8.80
2023-03-04T14:34:59.352Z,8.80
2023-03-04T14:40:57.532Z,8.80
2023-03-04T14:47:38.162Z,9.00
2023-03-04T14:53:56.634Z,9.10
2023-03-04T14:59:51.579Z,8.90
2023-03-04T15:05:46.106Z,8.70
2023-03-04T15:12:06.939Z,8.80
2023-03-04T15:18:27.242Z,8.70
2023-03-04T15:24:21.626Z,8.70
2023-03-04T15:30:17.637Z,8.40
2023-03-04T15:36:38.151Z,8.40
2023-03-04T15:42:56.945Z,8.50
2023-03-04T15:48:51.312Z,8.40
2023-03-04T15:54:46.554Z,8.30
2023-03-04T16:01:05.579Z,8.50
2023-03-04T16:07:24.550Z,8.20
2023-03-04T16:13:19.423Z,8.20
2023-03-04T16:19:13.998Z,8.20
2023-03-04T16:25:33.470Z,8.10
2023-03-04T16:31:52.861Z,8.20
2023-03-04T16:37:47.334Z,7.90
2023-03-04T16:43:42.098Z,7.70
2023-03-04T16:50:20.144Z,7.60
2023-03-04T16:56:38.522Z,7.80
2023-03-04T17:02:32.962Z,7.60
2023-03-04T17:08:27.468Z,7.50
2023-03-04T17:14:45.943Z,7.60
2023-03-04T17:21:10.251Z,7.60
2023-03-04T17:27:04.711Z,7.60
2023-03-04T17:32:59.494Z,7.40
2023-03-04T17:39:18.002Z,7.30
2023-03-04T17:45:36.661Z,7.20
2023-03-04T17:51:35.714Z,7.10
2023-03-04T17:57:30.226Z,7.20
2023-03-04T18:03:48.991Z,7.30
2023-03-04T18:10:08.750Z,7.20
2023-03-04T18:16:03.235Z,7.20
2023-03-04T18:21:57.748Z,7.10
2023-03-04T18:28:16.188Z,7.10
2023-03-04T18:34:35.362Z,7.10
2023-03-04T18:40:29.859Z,7.00
2023-03-04T18:46:29.885Z,7.00
2023-03-04T18:53:00.348Z,7.10
2023-03-04T18:59:18.699Z,7.00
2023-03-04T19:05:16.777Z,6.80
2023-03-04T19:11:11.215Z,6.90
2023-03-04T19:17:32.670Z,7.00
2023-03-04T19:23:52.450Z,7.00
2023-03-04T19:29:47.432Z,6.90
2023-03-04T19:35:42.836Z,7.70
2023-03-04T19:42:02.657Z,6.90
2023-03-04T19:48:21.349Z,6.80
2023-03-04T19:54:15.720Z,6.70
2023-03-04T20:00:11.700Z,6.80
2023-03-04T20:06:30.567Z,6.90
2023-03-04T20:12:48.925Z,6.90
2023-03-04T20:18:43.348Z,7.00
2023-03-04T20:24:37.831Z,7.10
2023-03-04T20:31:19.316Z,7.10
2023-03-04T20:37:37.782Z,7.10
2023-03-04T20:43:32.227Z,6.80
2023-03-04T20:49:27.621Z,6.70
2023-03-04T20:56:02.605Z,6.70
2023-03-04T21:02:23.440Z,6.90
2023-03-04T21:08:17.781Z,6.90
2023-03-04T21:14:24.882Z,6.80
2023-03-04T21:20:44.702Z,6.70
2023-03-04T21:27:04.324Z,6.40
2023-03-04T21:33:00.937Z,6.50
2023-03-04T21:38:55.452Z,6.60
2023-03-04T21:45:13.916Z,6.70
2023-03-04T21:51:34.412Z,6.60
2023-03-04T21:57:28.851Z,6.60
2023-03-04T22:03:23.339Z,6.80
2023-03-04T22:09:41.914Z,6.80
2023-03-04T22:16:00.387Z,6.80
2023-03-04T22:21:54.832Z,6.90
2023-03-04T22:27:49.321Z,6.90
2023-03-04T22:34:09.780Z,6.90
2023-03-04T22:40:28.341Z,6.70
2023-03-04T22:46:24.383Z,6.60
2023-03-04T22:52:18.840Z,6.70
2023-03-04T22:58:49.470Z,6.60
2023-03-04T23:05:08.289Z,6.50
2023-03-04T23:11:03.020Z,6.50
2023-03-04T23:16:57.639Z,6.70
2023-03-04T23:23:16.120Z,6.70
2023-03-04T23:29:34.496Z,6.80
2023-03-04T23:35:28.928Z,6.70
2023-03-04T23:41:25.164Z,6.70
2023-03-04T23:47:43.638Z,6.70
2023-03-04T23:54:02.003Z,6.60
2023-03-04T23:59:56.387Z,6.60
